Terminal Aerodrome Forecast
Issued by NWS

Current Version | Previous Version | Graphics & Text | Print | Product List | Glossary Off
Versions: 1 2 3 4 5 6 7 8 9 10 11 12 13 14 15 16

000
FTUS42 KILM 041136
TAFCRE
TAF
KCRE 041136Z 0412/0512 03009KT P6SM VCSH OVC080
     FM041800 04007KT P6SM -RA OVC060
     FM050000 08009KT 4SM -RA SCT003 BKN020 OVC040
     FM050500 12011KT 3SM -RA BKN008
     FM050900 22008KT 4SM -RA BR BKN003 OVC007=

USA.gov is the U.S. government's official web portal to all federal, state and local government web resources and services.